sensor_id;sensor_type;location;lat;lon;timestamp;pressure;altitude;pressure_sealevel;temperature;humidity
52855;BME280;38719;51.418;7.286;2023-02-16T00:01:18;100661.69;;;9.11;56.30
52855;BME280;38719;51.418;7.286;2023-02-16T00:03:46;100653.16;;;8.98;56.25
52855;BME280;38719;51.418;7.286;2023-02-16T00:06:15;100656.53;;;9.05;56.35
52855;BME280;38719;51.418;7.286;2023-02-16T00:08:44;100655.91;;;8.95;56.78
52855;BME280;38719;51.418;7.286;2023-02-16T00:11:16;100659.59;;;8.91;57.07
52855;BME280;38719;51.418;7.286;2023-02-16T00:14:04;100659.44;;;8.96;57.08
52855;BME280;38719;51.418;7.286;2023-02-16T00:16:33;100661.19;;;8.97;57.09
52855;BME280;38719;51.418;7.286;2023-02-16T00:19:14;100656.94;;;8.91;56.65
52855;BME280;38719;51.418;7.286;2023-02-16T00:21:42;100648.44;;;8.77;57.35
52855;BME280;38719;51.418;7.286;2023-02-16T00:24:10;100648.41;;;8.78;56.94
52855;BME280;38719;51.418;7.286;2023-02-16T00:26:39;100646.38;;;8.88;56.57
52855;BME280;38719;51.418;7.286;2023-02-16T00:29:10;100635.75;;;8.88;56.90
52855;BME280;38719;51.418;7.286;2023-02-16T00:31:40;100635.75;;;8.88;56.32
52855;BME280;38719;51.418;7.286;2023-02-16T00:34:23;100633.03;;;8.91;56.22
52855;BME280;38719;51.418;7.286;2023-02-16T00:36:51;100644.78;;;8.81;56.27
52855;BME280;38719;51.418;7.286;2023-02-16T00:39:19;100634.59;;;8.65;57.45
52855;BME280;38719;51.418;7.286;2023-02-16T00:41:47;100629.31;;;8.64;57.19
52855;BME280;38719;51.418;7.286;2023-02-16T00:44:24;100632.09;;;8.59;57.60
52855;BME280;38719;51.418;7.286;2023-02-16T00:46:53;100623.97;;;8.65;56.96
52855;BME280;38719;51.418;7.286;2023-02-16T00:49:21;100635.34;;;8.70;56.65
52855;BME280;38719;51.418;7.286;2023-02-16T00:51:49;100632.56;;;8.74;56.86
52855;BME280;38719;51.418;7.286;2023-02-16T00:54:17;100628.31;;;8.68;57.29
52855;BME280;38719;51.418;7.286;2023-02-16T00:56:44;100628.38;;;8.65;57.47
52855;BME280;38719;51.418;7.286;2023-02-16T00:59:15;100631.66;;;8.75;57.23
52855;BME280;38719;51.418;7.286;2023-02-16T01:01:46;100623.69;;;8.75;56.93
52855;BME280;38719;51.418;7.286;2023-02-16T01:04:18;100632.75;;;8.67;56.28
52855;BME280;38719;51.418;7.286;2023-02-16T01:06:47;100643.19;;;8.74;56.43
52855;BME280;38719;51.418;7.286;2023-02-16T01:09:32;100633.03;;;8.57;57.43
52855;BME280;38719;51.418;7.286;2023-02-16T01:12:19;100627.88;;;8.50;57.72
52855;BME280;38719;51.418;7.286;2023-02-16T01:14:51;100628.75;;;8.51;57.24
52855;BME280;38719;51.418;7.286;2023-02-16T01:17:20;100633.25;;;8.47;56.88
52855;BME280;38719;51.418;7.286;2023-02-16T01:19:49;100614.63;;;8.49;57.15
52855;BME280;38719;51.418;7.286;2023-02-16T01:22:16;100623.72;;;8.38;57.67
52855;BME280;38719;51.418;7.286;2023-02-16T01:24:44;100623.88;;;8.32;57.68
52855;BME280;38719;51.418;7.286;2023-02-16T01:27:12;100626.63;;;8.29;57.13
52855;BME280;38719;51.418;7.286;2023-02-16T01:29:40;100628.38;;;8.29;57.00
52855;BME280;38719;51.418;7.286;2023-02-16T01:32:09;100626.78;;;8.21;57.59
52855;BME280;38719;51.418;7.286;2023-02-16T01:34:39;100623.28;;;8.21;58.12
52855;BME280;38719;51.418;7.286;2023-02-16T01:37:13;100623.34;;;8.18;57.92
52855;BME280;38719;51.418;7.286;2023-02-16T01:39:40;100614.47;;;8.20;57.61
52855;BME280;38719;51.418;7.286;2023-02-16T01:42:12;100609.31;;;8.14;57.70
52855;BME280;38719;51.418;7.286;2023-02-16T01:44:45;100622.66;;;8.10;58.08
52855;BME280;38719;51.418;7.286;2023-02-16T01:47:25;100623.47;;;8.13;57.41
52855;BME280;38719;51.418;7.286;2023-02-16T01:49:57;100615.38;;;8.18;58.11
52855;BME280;38719;51.418;7.286;2023-02-16T01:52:32;100615.28;;;8.22;57.97
52855;BME280;38719;51.418;7.286;2023-02-16T01:55:04;100623.06;;;8.29;57.80
52855;BME280;38719;51.418;7.286;2023-02-16T01:57:40;100615.16;;;8.27;57.40
52855;BME280;38719;51.418;7.286;2023-02-16T02:00:16;100607.25;;;8.26;56.87
52855;BME280;38719;51.418;7.286;2023-02-16T02:02:49;100613.56;;;8.20;56.99
52855;BME280;38719;51.418;7.286;2023-02-16T02:05:26;100609.75;;;8.32;57.46
52855;BME280;38719;51.418;7.286;2023-02-16T02:08:09;100601.63;;;8.38;57.37
52855;BME280;38719;51.418;7.286;2023-02-16T02:10:45;100607.25;;;8.24;57.19
52855;BME280;38719;51.418;7.286;2023-02-16T02:13:19;100609.59;;;8.02;58.09
52855;BME280;38719;51.418;7.286;2023-02-16T02:15:48;100605.00;;;8.09;57.55
52855;BME280;38719;51.418;7.286;2023-02-16T02:18:15;100600.91;;;7.95;57.86
52855;BME280;38719;51.418;7.286;2023-02-16T02:20:53;100600.56;;;8.09;57.22
52855;BME280;38719;51.418;7.286;2023-02-16T02:23:59;100607.66;;;8.09;57.81
52855;BME280;38719;51.418;7.286;2023-02-16T02:26:50;100593.34;;;8.16;57.68
52855;BME280;38719;51.418;7.286;2023-02-16T02:29:34;100604.06;;;8.11;57.15
52855;BME280;38719;51.418;7.286;2023-02-16T02:32:07;100601.44;;;8.10;57.42
52855;BME280;38719;51.418;7.286;2023-02-16T02:34:52;100611.16;;;8.11;57.19
52855;BME280;38719;51.418;7.286;2023-02-16T02:37:28;100600.44;;;8.14;57.34
52855;BME280;38719;51.418;7.286;2023-02-16T02:40:05;100599.56;;;8.15;57.25
52855;BME280;38719;51.418;7.286;2023-02-16T02:42:40;100601.22;;;8.19;57.11
52855;BME280;38719;51.418;7.286;2023-02-16T02:45:13;100594.94;;;8.23;57.21
52855;BME280;38719;51.418;7.286;2023-02-16T02:47:46;100591.53;;;8.16;56.85
52855;BME280;38719;51.418;7.286;2023-02-16T02:50:33;100579.28;;;8.12;56.84
52855;BME280;38719;51.418;7.286;2023-02-16T02:53:07;100575.72;;;8.13;57.69
52855;BME280;38719;51.418;7.286;2023-02-16T02:55:38;100583.94;;;8.02;57.15
52855;BME280;38719;51.418;7.286;2023-02-16T02:58:31;100585.88;;;7.94;57.43
52855;BME280;38719;51.418;7.286;2023-02-16T03:01:34;100574.34;;;7.97;57.84
52855;BME280;38719;51.418;7.286;2023-02-16T03:04:05;100575.13;;;8.02;57.16
52855;BME280;38719;51.418;7.286;2023-02-16T03:06:37;100572.31;;;8.06;56.85
52855;BME280;38719;51.418;7.286;2023-02-16T03:09:09;100574.91;;;8.10;57.09
52855;BME280;38719;51.418;7.286;2023-02-16T03:11:39;100571.81;;;7.92;57.69
52855;BME280;38719;51.418;7.286;2023-02-16T03:14:29;100571.03;;;7.87;57.52
52855;BME280;38719;51.418;7.286;2023-02-16T03:17:01;100564.66;;;7.94;57.25
52855;BME280;38719;51.418;7.286;2023-02-16T03:19:49;100575.06;;;8.03;56.50
52855;BME280;38719;51.418;7.286;2023-02-16T03:22:36;100570.66;;;8.02;56.83
52855;BME280;38719;51.418;7.286;2023-02-16T03:25:23;100571.88;;;7.89;57.58
52855;BME280;38719;51.418;7.286;2023-02-16T03:28:10;100561.88;;;8.00;56.85
52855;BME280;38719;51.418;7.286;2023-02-16T03:30:59;100551.91;;;8.10;56.29
52855;BME280;38719;51.418;7.286;2023-02-16T03:33:29;100549.44;;;8.02;56.88
52855;BME280;38719;51.418;7.286;2023-02-16T03:35:57;100538.78;;;8.04;56.06
52855;BME280;38719;51.418;7.286;2023-02-16T03:38:26;100540.53;;;8.05;55.57
52855;BME280;38719;51.418;7.286;2023-02-16T03:40:53;100529.81;;;8.10;55.46
52855;BME280;38719;51.418;7.286;2023-02-16T03:43:24;100536.78;;;8.14;56.21
52855;BME280;38719;51.418;7.286;2023-02-16T03:45:52;100535.09;;;8.11;55.55
52855;BME280;38719;51.418;7.286;2023-02-16T03:48:21;100542.88;;;8.17;56.16
52855;BME280;38719;51.418;7.286;2023-02-16T03:50:48;100544.44;;;8.26;55.00
52855;BME280;38719;51.418;7.286;2023-02-16T03:53:17;100536.41;;;8.29;56.08
52855;BME280;38719;51.418;7.286;2023-02-16T03:55:46;100549.66;;;8.29;55.67
52855;BME280;38719;51.418;7.286;2023-02-16T03:58:16;100552.22;;;8.32;54.98
52855;BME280;38719;51.418;7.286;2023-02-16T04:00:44;100540.19;;;8.19;55.98
52855;BME280;38719;51.418;7.286;2023-02-16T04:03:12;100547.88;;;8.30;55.51
52855;BME280;38719;51.418;7.286;2023-02-16T04:05:41;100539.22;;;8.23;55.45
52855;BME280;38719;51.418;7.286;2023-02-16T04:08:09;100548.88;;;8.26;55.67
52855;BME280;38719;51.418;7.286;2023-02-16T04:10:38;100548.06;;;8.22;55.09
52855;BME280;38719;51.418;7.286;2023-02-16T04:13:06;100542.97;;;8.14;55.31
52855;BME280;38719;51.418;7.286;2023-02-16T04:15:32;100550.78;;;8.20;55.23
52855;BME280;38719;51.418;7.286;2023-02-16T04:18:00;100549.88;;;8.20;55.02
52855;BME280;38719;51.418;7.286;2023-02-16T04:20:30;100555.47;;;8.09;55.91
52855;BME280;38719;51.418;7.286;2023-02-16T04:22:59;100558.84;;;8.16;56.37
52855;BME280;38719;51.418;7.286;2023-02-16T04:25:27;100556.91;;;8.22;55.20
52855;BME280;38719;51.418;7.286;2023-02-16T04:27:55;100556.00;;;8.23;55.63
52855;BME280;38719;51.418;7.286;2023-02-16T04:30:24;100558.13;;;8.09;55.46
52855;BME280;38719;51.418;7.286;2023-02-16T04:32:53;100556.19;;;8.16;55.29
52855;BME280;38719;51.418;7.286;2023-02-16T04:35:21;100555.97;;;7.89;55.91
52855;BME280;38719;51.418;7.286;2023-02-16T04:37:49;100553.25;;;7.90;56.05
52855;BME280;38719;51.418;7.286;2023-02-16T04:40:18;100545.97;;;8.00;55.88
52855;BME280;38719;51.418;7.286;2023-02-16T04:42:46;100537.28;;;7.94;56.83
52855;BME280;38719;51.418;7.286;2023-02-16T04:45:13;100539.34;;;7.81;57.24
52855;BME280;38719;51.418;7.286;2023-02-16T04:47:41;100537.50;;;7.86;57.10
52855;BME280;38719;51.418;7.286;2023-02-16T04:50:09;100543.53;;;7.91;56.95
52855;BME280;38719;51.418;7.286;2023-02-16T04:52:37;100540.19;;;7.83;56.17
52855;BME280;38719;51.418;7.286;2023-02-16T04:55:05;100538.41;;;7.85;57.20
52855;BME280;38719;51.418;7.286;2023-02-16T04:57:37;100542.66;;;7.90;56.45
52855;BME280;38719;51.418;7.286;2023-02-16T05:00:06;100541.03;;;7.85;56.24
52855;BME280;38719;51.418;7.286;2023-02-16T05:02:34;100537.41;;;7.89;55.92
52855;BME280;38719;51.418;7.286;2023-02-16T05:05:02;100528.78;;;7.79;56.96
52855;BME280;38719;51.418;7.286;2023-02-16T05:07:29;100516.38;;;7.81;56.59
52855;BME280;38719;51.418;7.286;2023-02-16T05:09:56;100524.13;;;7.89;57.30
52855;BME280;38719;51.418;7.286;2023-02-16T05:12:24;100520.50;;;7.93;56.82
52855;BME280;38719;51.418;7.286;2023-02-16T05:15:11;100531.63;;;8.07;56.07
52855;BME280;38719;51.418;7.286;2023-02-16T05:17:38;100532.22;;;8.19;55.52
52855;BME280;38719;51.418;7.286;2023-02-16T05:20:06;100530.88;;;8.02;56.38
52855;BME280;38719;51.418;7.286;2023-02-16T05:22:33;100540.44;;;8.10;55.83
52855;BME280;38719;51.418;7.286;2023-02-16T05:25:04;100535.34;;;8.02;55.72
52855;BME280;38719;51.418;7.286;2023-02-16T05:27:32;100544.06;;;8.05;56.00
52855;BME280;38719;51.418;7.286;2023-02-16T05:29:59;100537.03;;;8.04;56.62
52855;BME280;38719;51.418;7.286;2023-02-16T05:32:28;100540.47;;;8.08;56.10
52855;BME280;38719;51.418;7.286;2023-02-16T05:34:56;100537.03;;;8.04;56.17
52855;BME280;38719;51.418;7.286;2023-02-16T05:37:23;100543.47;;;7.94;56.10
52855;BME280;38719;51.418;7.286;2023-02-16T05:39:51;100548.69;;;7.97;56.59
52855;BME280;38719;51.418;7.286;2023-02-16T05:42:19;100556.59;;;7.99;56.84
52855;BME280;38719;51.418;7.286;2023-02-16T05:44:46;100562.78;;;7.99;56.68
52855;BME280;38719;51.418;7.286;2023-02-16T05:47:14;100553.34;;;7.87;56.38
52855;BME280;38719;51.418;7.286;2023-02-16T05:49:42;100545.25;;;7.94;55.89
52855;BME280;38719;51.418;7.286;2023-02-16T05:52:10;100545.28;;;7.92;57.07
52855;BME280;38719;51.418;7.286;2023-02-16T05:54:37;100539.94;;;7.94;56.21
52855;BME280;38719;51.418;7.286;2023-02-16T05:57:05;100540.41;;;7.75;56.70
52855;BME280;38719;51.418;7.286;2023-02-16T05:59:32;100544.00;;;7.72;57.34
52855;BME280;38719;51.418;7.286;2023-02-16T06:02:00;100544.59;;;7.84;56.94
52855;BME280;38719;51.418;7.286;2023-02-16T06:04:28;100552.56;;;7.84;56.35
52855;BME280;38719;51.418;7.286;2023-02-16T06:06:56;100546.09;;;7.94;56.73
52855;BME280;38719;51.418;7.286;2023-02-16T06:09:24;100548.91;;;7.88;56.64
52855;BME280;38719;51.418;7.286;2023-02-16T06:11:51;100547.84;;;7.95;56.70
52855;BME280;38719;51.418;7.286;2023-02-16T06:14:20;100554.06;;;7.94;55.94
52855;BME280;38719;51.418;7.286;2023-02-16T06:16:48;100549.75;;;7.90;56.88
52855;BME280;38719;51.418;7.286;2023-02-16T06:19:17;100549.91;;;7.84;56.91
52855;BME280;38719;51.418;7.286;2023-02-16T06:21:45;100540.34;;;7.77;56.74
52855;BME280;38719;51.418;7.286;2023-02-16T06:24:14;100544.28;;;7.60;56.96
52855;BME280;38719;51.418;7.286;2023-02-16T06:26:42;100546.69;;;7.69;57.05
52855;BME280;38719;51.418;7.286;2023-02-16T06:29:09;100551.34;;;7.59;57.18
52855;BME280;38719;51.418;7.286;2023-02-16T06:31:37;100553.09;;;7.61;57.60
52855;BME280;38719;51.418;7.286;2023-02-16T06:34:05;100545.94;;;7.64;57.66
52855;BME280;38719;51.418;7.286;2023-02-16T06:36:33;100533.69;;;7.60;56.97
52855;BME280;38719;51.418;7.286;2023-02-16T06:39:01;100539.28;;;7.46;57.60
52855;BME280;38719;51.418;7.286;2023-02-16T06:41:30;100548.97;;;7.47;57.32
52855;BME280;38719;51.418;7.286;2023-02-16T06:44:00;100545.38;;;7.51;58.05
52855;BME280;38719;51.418;7.286;2023-02-16T06:46:28;100548.53;;;7.67;56.91
52855;BME280;38719;51.418;7.286;2023-02-16T06:48:56;100541.06;;;7.83;57.22
52855;BME280;38719;51.418;7.286;2023-02-16T06:51:24;100535.47;;;7.96;56.88
52855;BME280;38719;51.418;7.286;2023-02-16T06:53:51;100544.31;;;7.96;57.22
52855;BME280;38719;51.418;7.286;2023-02-16T06:56:19;100539.75;;;8.01;56.94
52855;BME280;38719;51.418;7.286;2023-02-16T06:58:48;100551.78;;;8.15;56.61
52855;BME280;38719;51.418;7.286;2023-02-16T07:01:16;100547.97;;;8.25;56.07
52855;BME280;38719;51.418;7.286;2023-02-16T07:03:48;100552.91;;;8.41;56.56
52855;BME280;38719;51.418;7.286;2023-02-16T07:06:18;100549.22;;;8.48;55.85
52855;BME280;38719;51.418;7.286;2023-02-16T07:08:46;100546.69;;;8.42;55.91
52855;BME280;38719;51.418;7.286;2023-02-16T07:11:15;100539.13;;;8.26;55.27
52855;BME280;38719;51.418;7.286;2023-02-16T07:13:42;100536.00;;;8.10;56.80
52855;BME280;38719;51.418;7.286;2023-02-16T07:16:12;100537.09;;;8.01;57.03
52855;BME280;38719;51.418;7.286;2023-02-16T07:18:40;100532.00;;;7.94;57.10
52855;BME280;38719;51.418;7.286;2023-02-16T07:21:07;100550.66;;;7.89;57.12
52855;BME280;38719;51.418;7.286;2023-02-16T07:23:35;100535.59;;;7.91;56.48
52855;BME280;38719;51.418;7.286;2023-02-16T07:26:02;100546.66;;;8.09;56.14
52855;BME280;38719;51.418;7.286;2023-02-16T07:28:30;100555.13;;;8.23;56.15
52855;BME280;38719;51.418;7.286;2023-02-16T07:30:58;100549.56;;;8.32;56.25
52855;BME280;38719;51.418;7.286;2023-02-16T07:33:33;100549.50;;;8.35;56.05
52855;BME280;38719;51.418;7.286;2023-02-16T07:36:01;100558.59;;;8.25;56.08
52855;BME280;38719;51.418;7.286;2023-02-16T07:38:28;100554.34;;;8.19;55.99
52855;BME280;38719;51.418;7.286;2023-02-16T07:40:57;100549.66;;;8.29;55.62
52855;BME280;38719;51.418;7.286;2023-02-16T07:43:25;100541.59;;;8.32;56.18
52855;BME280;38719;51.418;7.286;2023-02-16T07:45:52;100545.34;;;8.25;55.64
52855;BME280;38719;51.418;7.286;2023-02-16T07:48:20;100554.88;;;8.32;55.62
52855;BME280;38719;51.418;7.286;2023-02-16T07:50:49;100544.06;;;8.40;55.58
52855;BME280;38719;51.418;7.286;2023-02-16T07:53:16;100545.75;;;8.43;55.36
52855;BME280;38719;51.418;7.286;2023-02-16T07:55:45;100532.66;;;8.36;55.87
52855;BME280;38719;51.418;7.286;2023-02-16T07:58:13;100535.31;;;8.36;55.63
52855;BME280;38719;51.418;7.286;2023-02-16T08:00:53;100532.84;;;8.29;55.85
52855;BME280;38719;51.418;7.286;2023-02-16T08:03:21;100530.09;;;8.33;56.93
52855;BME280;38719;51.418;7.286;2023-02-16T08:05:50;100526.69;;;8.28;56.33
52855;BME280;38719;51.418;7.286;2023-02-16T08:08:17;100538.63;;;8.10;56.24
52855;BME280;38719;51.418;7.286;2023-02-16T08:10:45;100531.63;;;8.07;57.04
52855;BME280;38719;51.418;7.286;2023-02-16T08:13:12;100535.34;;;8.02;56.75
52855;BME280;38719;51.418;7.286;2023-02-16T08:15:41;100539.78;;;8.00;56.40
52855;BME280;38719;51.418;7.286;2023-02-16T08:18:09;100533.88;;;7.88;57.14
52855;BME280;38719;51.418;7.286;2023-02-16T08:20:36;100542.81;;;7.84;56.67
52855;BME280;38719;51.418;7.286;2023-02-16T08:23:25;100539.59;;;8.07;56.98
52855;BME280;38719;51.418;7.286;2023-02-16T08:25:53;100540.47;;;8.08;56.06
52855;BME280;38719;51.418;7.286;2023-02-16T08:28:24;100537.69;;;8.13;55.84
52855;BME280;38719;51.418;7.286;2023-02-16T08:30:53;100550.03;;;8.14;55.85
52855;BME280;38719;51.418;7.286;2023-02-16T08:33:21;100545.34;;;8.25;56.54
52855;BME280;38719;51.418;7.286;2023-02-16T08:35:50;100544.03;;;8.42;55.93
52855;BME280;38719;51.418;7.286;2023-02-16T08:38:18;100542.16;;;8.47;55.52
52855;BME280;38719;51.418;7.286;2023-02-16T08:40:49;100543.63;;;8.57;54.69
52855;BME280;38719;51.418;7.286;2023-02-16T08:43:17;100547.94;;;8.61;55.45
52855;BME280;38719;51.418;7.286;2023-02-16T08:45:45;100554.97;;;8.64;54.80
52855;BME280;38719;51.418;7.286;2023-02-16T08:48:13;100547.59;;;8.74;54.84
52855;BME280;38719;51.418;7.286;2023-02-16T08:50:42;100554.97;;;8.95;54.95
52855;BME280;38719;51.418;7.286;2023-02-16T08:53:12;100547.75;;;9.00;55.22
52855;BME280;38719;51.418;7.286;2023-02-16T08:55:40;100555.63;;;9.03;54.42
52855;BME280;38719;51.418;7.286;2023-02-16T08:58:09;100557.16;;;9.12;54.09
52855;BME280;38719;51.418;7.286;2023-02-16T09:00:36;100565.84;;;9.17;54.36
52855;BME280;38719;51.418;7.286;2023-02-16T09:03:04;100559.81;;;9.12;54.21
52855;BME280;38719;51.418;7.286;2023-02-16T09:05:32;100575.88;;;9.08;54.35
52855;BME280;38719;51.418;7.286;2023-02-16T09:08:00;100573.03;;;9.14;53.78
52855;BME280;38719;51.418;7.286;2023-02-16T09:10:28;100577.84;;;9.01;54.07
52855;BME280;38719;51.418;7.286;2023-02-16T09:12:56;100579.72;;;8.97;54.38
52855;BME280;38719;51.418;7.286;2023-02-16T09:15:24;100574.25;;;9.03;54.18
52855;BME280;38719;51.418;7.286;2023-02-16T09:17:52;100570.47;;;9.11;54.52
52855;BME280;38719;51.418;7.286;2023-02-16T09:20:20;100580.72;;;9.25;54.25
52855;BME280;38719;51.418;7.286;2023-02-16T09:22:49;100575.34;;;9.26;53.62
52855;BME280;38719;51.418;7.286;2023-02-16T09:25:17;100571.25;;;9.14;54.82
52855;BME280;38719;51.418;7.286;2023-02-16T09:27:45;100569.53;;;9.12;54.55
52855;BME280;38719;51.418;7.286;2023-02-16T09:30:13;100569.16;;;8.94;54.84
52855;BME280;38719;51.418;7.286;2023-02-16T09:32:42;100557.84;;;8.87;54.95
52855;BME280;38719;51.418;7.286;2023-02-16T09:35:10;100564.56;;;9.01;54.73
52855;BME280;38719;51.418;7.286;2023-02-16T09:37:37;100562.53;;;9.09;54.94
52855;BME280;38719;51.418;7.286;2023-02-16T09:40:06;100570.69;;;9.03;54.84
52855;BME280;38719;51.418;7.286;2023-02-16T09:42:48;100571.03;;;9.22;54.86
52855;BME280;38719;51.418;7.286;2023-02-16T09:45:19;100571.47;;;9.36;54.65
52855;BME280;38719;51.418;7.286;2023-02-16T09:47:51;100581.91;;;9.44;54.66
52855;BME280;38719;51.418;7.286;2023-02-16T09:50:22;100567.34;;;9.56;54.60
52855;BME280;38719;51.418;7.286;2023-02-16T09:53:17;100567.34;;;9.56;54.55
52855;BME280;38719;51.418;7.286;2023-02-16T09:55:53;100573.16;;;9.69;54.19
52855;BME280;38719;51.418;7.286;2023-02-16T09:58:32;100570.16;;;9.80;54.14
52855;BME280;38719;51.418;7.286;2023-02-16T10:01:09;100575.19;;;9.89;53.66
52855;BME280;38719;51.418;7.286;2023-02-16T10:03:51;100574.41;;;9.86;53.77
52855;BME280;38719;51.418;7.286;2023-02-16T10:06:27;100570.78;;;9.88;54.05
52855;BME280;38719;51.418;7.286;2023-02-16T10:08:58;100581.53;;;9.85;53.72
52855;BME280;38719;51.418;7.286;2023-02-16T10:11:32;100578.69;;;9.90;54.38
52855;BME280;38719;51.418;7.286;2023-02-16T10:14:11;100589.91;;;9.99;54.49
52855;BME280;38719;51.418;7.286;2023-02-16T10:16:44;100586.06;;;10.10;54.06
52855;BME280;38719;51.418;7.286;2023-02-16T10:19:20;100588.50;;;10.16;54.17
52855;BME280;38719;51.418;7.286;2023-02-16T10:21:52;100587.28;;;10.26;53.65
52855;BME280;38719;51.418;7.286;2023-02-16T10:24:23;100588.59;;;10.13;54.06
52855;BME280;38719;51.418;7.286;2023-02-16T10:26:56;100599.25;;;10.13;54.33
52855;BME280;38719;51.418;7.286;2023-02-16T10:29:27;100596.38;;;10.19;54.27
52855;BME280;38719;51.418;7.286;2023-02-16T10:32:03;100597.41;;;10.15;54.24
52855;BME280;38719;51.418;7.286;2023-02-16T10:34:44;100589.66;;;10.07;54.47
52855;BME280;38719;51.418;7.286;2023-02-16T10:37:39;100595.53;;;10.19;55.03
52855;BME280;38719;51.418;7.286;2023-02-16T10:40:24;100585.09;;;10.11;54.91
52855;BME280;38719;51.418;7.286;2023-02-16T10:42:57;100582.38;;;10.14;54.76
52855;BME280;38719;51.418;7.286;2023-02-16T10:45:32;100589.31;;;10.18;55.11
52855;BME280;38719;51.418;7.286;2023-02-16T10:48:02;100590.03;;;10.23;55.27
52855;BME280;38719;51.418;7.286;2023-02-16T10:50:35;100594.56;;;10.21;55.72
52855;BME280;38719;51.418;7.286;2023-02-16T10:53:07;100589.16;;;10.23;55.93
52855;BME280;38719;51.418;7.286;2023-02-16T10:55:36;100583.25;;;10.41;55.55
52855;BME280;38719;51.418;7.286;2023-02-16T10:58:04;100580.25;;;10.24;56.39
52855;BME280;38719;51.418;7.286;2023-02-16T11:00:45;100586.53;;;9.94;57.60
52855;BME280;38719;51.418;7.286;2023-02-16T11:03:14;100591.19;;;10.14;57.18
52855;BME280;38719;51.418;7.286;2023-02-16T11:05:44;100587.16;;;10.03;57.48
52855;BME280;38719;51.418;7.286;2023-02-16T11:08:11;100584.63;;;10.26;57.00
52855;BME280;38719;51.418;7.286;2023-02-16T11:10:42;100584.63;;;10.26;56.99
52855;BME280;38719;51.418;7.286;2023-02-16T11:13:24;100585.31;;;10.31;57.20
52855;BME280;38719;51.418;7.286;2023-02-16T11:15:54;100567.59;;;10.30;56.89
52855;BME280;38719;51.418;7.286;2023-02-16T11:18:28;100577.34;;;10.31;57.89
52855;BME280;38719;51.418;7.286;2023-02-16T11:20:58;100568.25;;;10.39;57.46
52855;BME280;38719;51.418;7.286;2023-02-16T11:23:28;100564.94;;;10.30;57.82
52855;BME280;38719;51.418;7.286;2023-02-16T11:26:00;100574.06;;;10.23;57.79
52855;BME280;38719;51.418;7.286;2023-02-16T11:28:31;100568.63;;;10.26;58.87
52855;BME280;38719;51.418;7.286;2023-02-16T11:31:02;100578.00;;;10.38;58.21
52855;BME280;38719;51.418;7.286;2023-02-16T11:33:31;100563.13;;;10.58;57.48
52855;BME280;38719;51.418;7.286;2023-02-16T11:36:01;100564.78;;;10.62;57.84
52855;BME280;38719;51.418;7.286;2023-02-16T11:38:31;100558.69;;;10.84;57.63
52855;BME280;38719;51.418;7.286;2023-02-16T11:41:02;100555.31;;;10.78;57.28
52855;BME280;38719;51.418;7.286;2023-02-16T11:43:34;100544.94;;;10.71;58.19
52855;BME280;38719;51.418;7.286;2023-02-16T11:46:04;100543.44;;;10.87;57.28
52855;BME280;38719;51.418;7.286;2023-02-16T11:48:33;100548.94;;;10.83;58.00
52855;BME280;38719;51.418;7.286;2023-02-16T11:51:05;100538.19;;;10.86;58.13
52855;BME280;38719;51.418;7.286;2023-02-16T11:53:34;100546.94;;;10.89;57.91
52855;BME280;38719;51.418;7.286;2023-02-16T11:56:11;100539.47;;;10.75;57.55
52855;BME280;38719;51.418;7.286;2023-02-16T11:58:39;100541.94;;;10.80;58.15
52855;BME280;38719;51.418;7.286;2023-02-16T12:01:18;100536.28;;;10.89;58.32
52855;BME280;38719;51.418;7.286;2023-02-16T12:03:58;100533.94;;;10.80;58.78
52855;BME280;38719;51.418;7.286;2023-02-16T12:06:40;100531.19;;;10.83;58.20
52855;BME280;38719;51.418;7.286;2023-02-16T12:09:21;100539.94;;;10.87;58.57
52855;BME280;38719;51.418;7.286;2023-02-16T12:11:58;100537.50;;;11.04;57.76
52855;BME280;38719;51.418;7.286;2023-02-16T12:14:39;100539.81;;;11.13;57.25
52855;BME280;38719;51.418;7.286;2023-02-16T12:17:18;100537.38;;;11.07;59.48
52855;BME280;38719;51.418;7.286;2023-02-16T12:19:53;100541.38;;;10.95;59.86
52855;BME280;38719;51.418;7.286;2023-02-16T12:22:29;100535.00;;;11.00;60.69
52855;BME280;38719;51.418;7.286;2023-02-16T12:25:16;100534.06;;;11.01;60.58
52855;BME280;38719;51.418;7.286;2023-02-16T12:27:49;100528.97;;;10.94;61.19
52855;BME280;38719;51.418;7.286;2023-02-16T12:30:27;100526.00;;;10.78;62.06
52855;BME280;38719;51.418;7.286;2023-02-16T12:33:10;100521.91;;;10.70;62.13
52855;BME280;38719;51.418;7.286;2023-02-16T12:35:54;100513.91;;;10.70;62.87
52855;BME280;38719;51.418;7.286;2023-02-16T12:38:33;100497.53;;;10.80;62.95
52855;BME280;38719;51.418;7.286;2023-02-16T12:41:13;100489.09;;;10.91;63.18
52855;BME280;38719;51.418;7.286;2023-02-16T12:43:50;100509.50;;;10.92;62.18
52855;BME280;38719;51.418;7.286;2023-02-16T12:46:23;100514.56;;;11.00;62.76
52855;BME280;38719;51.418;7.286;2023-02-16T12:48:56;100496.63;;;11.04;62.88
52855;BME280;38719;51.418;7.286;2023-02-16T12:51:30;100491.03;;;11.11;61.91
52855;BME280;38719;51.418;7.286;2023-02-16T12:54:05;100486.94;;;11.03;63.36
52855;BME280;38719;51.418;7.286;2023-02-16T12:56:38;100485.75;;;11.10;62.74
52855;BME280;38719;51.418;7.286;2023-02-16T12:59:16;100482.84;;;11.16;62.92
52855;BME280;38719;51.418;7.286;2023-02-16T13:01:47;100485.63;;;11.13;62.95
52855;BME280;38719;51.418;7.286;2023-02-16T13:04:20;100485.47;;;11.18;62.88
52855;BME280;38719;51.418;7.286;2023-02-16T13:06:55;100483.66;;;11.18;62.46
52855;BME280;38719;51.418;7.286;2023-02-16T13:09:39;100489.22;;;11.12;62.36
52855;BME280;38719;51.418;7.286;2023-02-16T13:12:13;100484.81;;;11.11;62.89
52855;BME280;38719;51.418;7.286;2023-02-16T13:14:47;100495.94;;;11.22;61.71
52855;BME280;38719;51.418;7.286;2023-02-16T13:17:31;100501.47;;;11.18;61.92
52855;BME280;38719;51.418;7.286;2023-02-16T13:19:59;100499.25;;;11.29;61.20
52855;BME280;38719;51.418;7.286;2023-02-16T13:22:38;100493.84;;;11.31;60.91